Terminal Aerodrome Forecast
Issued by NWS

Home | Current Version | Previous Version | Text Only | Print | Product List | Glossary Off
Versions: 1 2 3 4 5 6 7 8 9 10 11 12 13 14

000
FTUS41 KCLE 011724
TAFFDY
TAF
KFDY 011724Z 0118/0218 25015G25KT P6SM BKN022 OVC035
     FM020000 24012KT P6SM BKN022=

USA.gov is the U.S. government's official web portal to all federal, state and local government web resources and services.